CheckWX is a tool to help pilots better visualize weather data.  It is not intended as a substitute for an official pre-flight weather briefing.

11:04:03 UTC

KHZY METAR
Northeast Ohio Regional Airport
Ashtabula, Ohio, USA
Current

11 mins ago

KHZY 161053Z AUTO 19003KT 10SM CLR 22/21 A3006 RMK AO2 SLP170 T02170206
Observed
Jul-16 @ 10:53 UTC
Wind
  • 190° at 3 KTS
Visibility
10 SM
Flight Rules
VFR
Cloud Levels
  • Clear skies
Temperature
22°C / 72°F
Dewpoint
21°C / 70°F
Humidity
94%
Altimeter
30.06" Hg
Pressure
1017.92 hPa
Previous

1 hour ago

KHZY 160953Z AUTO 00000KT 10SM CLR 22/21 A3006 RMK AO2 SLP170 T02170206
Observed
Jul-16 @ 09:53 UTC
Visibility
10 SM
Flight Rules
VFR
Cloud Levels
  • Clear skies
Temperature
22°C / 72°F
Dewpoint
21°C / 70°F
Humidity
94%
Altimeter
30.06" Hg
Pressure
1017.92 hPa
Previous

2 hours ago

KHZY 160853Z AUTO 18003KT 10SM CLR 22/21 A3005 RMK AO2 SLP169 T02170206 55004
Observed
Jul-16 @ 08:53 UTC
Wind
  • 180° at 3 KTS
Visibility
10 SM
Flight Rules
VFR
Cloud Levels
  • Clear skies
Temperature
22°C / 72°F
Dewpoint
21°C / 70°F
Humidity
94%
Altimeter
30.05" Hg
Pressure
1017.62 hPa